createdAt,value
2023-01-13T00:00:28.487Z,9.9
2023-01-13T00:03:28.584Z,9.9
2023-01-13T00:06:31.027Z,9.9
2023-01-13T00:09:32.428Z,9.9
2023-01-13T00:12:28.346Z,9.9
2023-01-13T00:15:28.742Z,9.9
2023-01-13T00:18:31.219Z,9.9
2023-01-13T00:21:28.423Z,9.9
2023-01-13T00:24:28.610Z,9.9
2023-01-13T00:27:31.288Z,9.8
2023-01-13T00:30:28.269Z,9.8
2023-01-13T00:33:28.401Z,9.8
2023-01-13T00:36:30.796Z,9.7
2023-01-13T00:39:28.082Z,9.7
2023-01-13T00:42:28.914Z,9.7
2023-01-13T00:45:28.827Z,9.7
2023-01-13T00:48:55.389Z,9.6
2023-01-13T00:51:28.676Z,9.6
2023-01-13T00:54:28.608Z,9.6
2023-01-13T00:57:30.839Z,9.5
2023-01-13T01:00:28.754Z,9.5
2023-01-13T01:03:28.955Z,9.5
2023-01-13T01:06:31.193Z,9.4
2023-01-13T01:09:27.993Z,9.4
2023-01-13T01:12:28.873Z,9.4
2023-01-13T01:15:31.375Z,9.3
2023-01-13T01:18:28.178Z,9.3
2023-01-13T01:21:28.168Z,9.3
2023-01-13T01:24:30.595Z,9.1
2023-01-13T01:27:28.475Z,9.1
2023-01-13T01:30:28.503Z,9.1
2023-01-13T01:33:28.675Z,9.1
2023-01-13T01:36:31.156Z,9
2023-01-13T01:39:28.253Z,9
2023-01-13T01:42:28.336Z,9
2023-01-13T01:45:30.750Z,8.9
2023-01-13T01:48:28.750Z,8.9
2023-01-13T01:51:28.855Z,8.9
2023-01-13T01:54:31.445Z,8.8
2023-01-13T01:57:28.408Z,8.8
2023-01-13T02:00:28.418Z,8.8
2023-01-13T02:03:31.043Z,8.6
2023-01-13T02:06:28.695Z,8.6
2023-01-13T02:09:28.881Z,8.6
2023-01-13T02:12:29.041Z,8.6
2023-01-13T02:15:30.702Z,8.6
2023-01-13T02:18:28.797Z,8.6
2023-01-13T02:21:28.587Z,8.6
2023-01-13T02:24:31.265Z,8.5
2023-01-13T02:27:29.032Z,8.5
2023-01-13T02:30:28.786Z,8.5
2023-01-13T02:33:31.212Z,8.4
2023-01-13T02:36:28.186Z,8.4
2023-01-13T02:39:28.175Z,8.4
2023-01-13T02:42:30.688Z,8.3
2023-01-13T02:45:28.812Z,8.3
2023-01-13T02:48:28.870Z,8.3
2023-01-13T02:51:28.832Z,8.3
2023-01-13T02:54:31.100Z,8.3
2023-01-13T02:57:28.229Z,8.3
2023-01-13T03:00:28.411Z,8.3
2023-01-13T03:03:31.101Z,8.2
2023-01-13T03:06:28.169Z,8.2
2023-01-13T03:09:28.230Z,8.2
2023-01-13T03:12:30.673Z,8.1
2023-01-13T03:15:28.816Z,8.1
2023-01-13T03:18:28.811Z,8.1
2023-01-13T03:21:31.323Z,8
2023-01-13T03:24:28.653Z,8
2023-01-13T03:27:28.715Z,8
2023-01-13T03:30:29.120Z,8
2023-01-13T03:33:31.235Z,7.9
2023-01-13T03:36:28.457Z,7.9
2023-01-13T03:39:28.633Z,7.9
2023-01-13T03:42:31.011Z,7.9
2023-01-13T03:45:29.137Z,7.9
2023-01-13T03:48:28.153Z,7.9
2023-01-13T03:51:30.603Z,7.8
2023-01-13T03:54:28.546Z,7.8
2023-01-13T03:57:28.636Z,7.8
2023-01-13T04:00:31.540Z,7.8
2023-01-13T04:03:28.862Z,7.8
2023-01-13T04:06:28.015Z,7.8
2023-01-13T04:09:28.132Z,7.8
2023-01-13T04:12:30.530Z,7.7
2023-01-13T04:15:28.873Z,7.7
2023-01-13T04:18:28.340Z,7.7
2023-01-13T04:21:31.148Z,7.7
2023-01-13T04:24:28.072Z,7.7
2023-01-13T04:27:28.239Z,7.7
2023-01-13T04:30:31.740Z,7.7
2023-01-13T04:33:28.544Z,7.7
2023-01-13T04:36:28.494Z,7.7
2023-01-13T04:39:30.791Z,7.6
2023-01-13T04:42:28.725Z,7.6
2023-01-13T04:45:28.890Z,7.6
2023-01-13T04:48:28.651Z,7.6
2023-01-13T04:51:30.972Z,7.6
2023-01-13T04:54:28.102Z,7.6
2023-01-13T04:57:28.139Z,7.6
2023-01-13T05:00:30.759Z,7.5
2023-01-13T05:03:29.097Z,7.5
2023-01-13T05:06:28.314Z,7.5
2023-01-13T05:09:31.353Z,7.5
2023-01-13T05:12:28.705Z,7.5
2023-01-13T05:15:27.975Z,7.5
2023-01-13T05:18:31.430Z,7.4
2023-01-13T05:21:28.748Z,7.4
2023-01-13T05:24:28.516Z,7.4
2023-01-13T05:27:28.881Z,7.4
2023-01-13T05:30:31.449Z,7.3
2023-01-13T05:33:28.492Z,7.3
2023-01-13T05:36:28.255Z,7.3
2023-01-13T05:39:31.053Z,7.3
2023-01-13T05:42:28.513Z,7.3
2023-01-13T05:45:28.870Z,7.3
2023-01-13T05:48:31.276Z,7.2
2023-01-13T05:51:28.768Z,7.2
2023-01-13T05:54:28.491Z,7.2
2023-01-13T05:57:30.651Z,7.1
2023-01-13T06:00:28.674Z,7.1
2023-01-13T06:03:29.946Z,7.1
2023-01-13T06:06:28.826Z,7.1
2023-01-13T06:09:31.285Z,7.1
2023-01-13T06:12:28.997Z,7.1
2023-01-13T06:15:28.417Z,7.1
2023-01-13T06:18:31.100Z,7.1
2023-01-13T06:21:28.577Z,7.1
2023-01-13T06:24:29.078Z,7.1
2023-01-13T06:27:30.990Z,7.1
2023-01-13T06:30:28.696Z,7.1
2023-01-13T06:33:28.331Z,7.1
2023-01-13T06:36:30.946Z,7.1
2023-01-13T06:39:28.137Z,7.1
2023-01-13T06:42:47.995Z,7.1
2023-01-13T06:45:28.192Z,7.1
2023-01-13T06:48:30.775Z,7.1
2023-01-13T06:51:28.950Z,7.1
2023-01-13T06:54:28.317Z,7.1
2023-01-13T06:57:30.861Z,7.1
2023-01-13T07:00:29.027Z,7.1
2023-01-13T07:03:29.104Z,7.1
2023-01-13T07:06:30.945Z,7.1
2023-01-13T07:09:28.555Z,7.1
2023-01-13T07:12:28.561Z,7.1
2023-01-13T07:15:31.323Z,7.1
2023-01-13T07:18:28.728Z,7.1
2023-01-13T07:21:28.713Z,7.1
2023-01-13T07:24:28.569Z,7.1
2023-01-13T07:27:31.435Z,7.2
2023-01-13T07:30:28.484Z,7.2
2023-01-13T07:33:28.972Z,7.2
2023-01-13T07:36:30.751Z,7.2
2023-01-13T07:39:28.980Z,7.2
2023-01-13T07:42:29.016Z,7.2
2023-01-13T07:45:31.713Z,7.2
2023-01-13T07:48:29.010Z,7.2
2023-01-13T07:51:28.377Z,7.2
2023-01-13T07:54:44.093Z,7.2
2023-01-13T07:57:29.004Z,7.2
2023-01-13T08:00:28.769Z,7.2
2023-01-13T08:03:28.964Z,7.2
2023-01-13T08:06:31.170Z,7.2
2023-01-13T08:09:28.623Z,7.2
2023-01-13T08:12:29.277Z,7.2
2023-01-13T08:15:31.307Z,7.2
2023-01-13T08:18:28.509Z,7.2
2023-01-13T08:21:28.769Z,7.2
2023-01-13T08:24:31.670Z,7.2
2023-01-13T08:27:28.890Z,7.2
2023-01-13T08:30:29.812Z,7.2
2023-01-13T08:33:31.348Z,7.3
2023-01-13T08:36:28.531Z,7.3
2023-01-13T08:39:28.214Z,7.3
2023-01-13T08:42:28.625Z,7.3
2023-01-13T08:45:31.426Z,7.3
2023-01-13T08:48:32.058Z,7.3
2023-01-13T08:51:28.361Z,7.3
2023-01-13T08:54:31.166Z,7.4
2023-01-13T08:57:28.675Z,7.4
2023-01-13T09:00:28.840Z,7.4
2023-01-13T09:03:30.496Z,7.4
2023-01-13T09:06:29.034Z,7.4
2023-01-13T09:09:28.570Z,7.4
2023-01-13T09:12:30.720Z,7.5
2023-01-13T09:15:30.016Z,7.5
2023-01-13T09:18:28.735Z,7.5
2023-01-13T09:21:28.791Z,7.5
2023-01-13T09:24:31.483Z,7.6
2023-01-13T09:27:28.773Z,7.6
2023-01-13T09:30:28.879Z,7.6
2023-01-13T09:33:30.864Z,7.8
2023-01-13T09:36:28.389Z,7.8
2023-01-13T09:39:28.648Z,7.8
2023-01-13T09:42:31.453Z,7.9
2023-01-13T09:45:28.862Z,7.9
2023-01-13T09:48:29.126Z,7.9
2023-01-13T09:51:31.360Z,8
2023-01-13T09:54:28.227Z,8
2023-01-13T09:57:28.455Z,8
2023-01-13T10:00:28.636Z,8
2023-01-13T10:03:31.591Z,8
2023-01-13T10:06:28.234Z,8
2023-01-13T10:09:28.708Z,8
2023-01-13T10:12:31.561Z,8
2023-01-13T10:15:28.662Z,8
2023-01-13T10:18:28.678Z,8
2023-01-13T10:21:30.583Z,8.1
2023-01-13T10:24:28.844Z,8.1
2023-01-13T10:27:28.124Z,8.1
2023-01-13T10:30:30.987Z,8.1
2023-01-13T10:33:28.636Z,8.1
2023-01-13T10:36:28.345Z,8.1
2023-01-13T10:39:28.569Z,8.1
2023-01-13T10:42:31.231Z,8.1
2023-01-13T10:45:28.531Z,8.1
2023-01-13T10:48:28.772Z,8.1
2023-01-13T10:51:31.740Z,8.1
2023-01-13T10:54:28.601Z,8.1
2023-01-13T10:57:28.643Z,8.1
2023-01-13T11:00:31.458Z,8.1
2023-01-13T11:03:28.951Z,8.1
2023-01-13T11:06:29.212Z,8.1
2023-01-13T11:09:30.892Z,8.1
2023-01-13T11:12:29.069Z,8.1
2023-01-13T11:15:28.370Z,8.1
2023-01-13T11:18:28.621Z,8.1
2023-01-13T11:21:31.476Z,8.2
2023-01-13T11:24:28.871Z,8.2
2023-01-13T11:27:29.096Z,8.2
2023-01-13T11:30:30.923Z,8.2
2023-01-13T11:33:28.302Z,8.2
2023-01-13T11:36:28.758Z,8.2
2023-01-13T11:39:31.427Z,8.3
2023-01-13T11:42:28.689Z,8.3
2023-01-13T11:45:29.119Z,8.3
2023-01-13T11:48:30.882Z,8.3
2023-01-13T11:51:28.360Z,8.3
2023-01-13T11:54:28.842Z,8.3
2023-01-13T11:57:29.101Z,8.3
2023-01-13T12:00:31.170Z,8.3
2023-01-13T12:03:28.796Z,8.3
2023-01-13T12:06:28.270Z,8.3
2023-01-13T12:09:30.916Z,8.2
2023-01-13T12:12:28.202Z,8.2
2023-01-13T12:15:28.249Z,8.2
2023-01-13T12:18:30.953Z,8.2
2023-01-13T12:21:28.285Z,8.2
2023-01-13T12:24:28.575Z,8.2
2023-01-13T12:27:31.357Z,8.2
2023-01-13T12:30:29.101Z,8.2
2023-01-13T12:33:28.277Z,8.2
2023-01-13T12:36:31.244Z,8.1
2023-01-13T12:40:30.799Z,8.1
2023-01-13T12:42:28.651Z,8.1
2023-01-13T12:45:29.020Z,8.1
2023-01-13T12:48:31.689Z,8
2023-01-13T12:51:28.541Z,8
2023-01-13T12:54:28.667Z,8
2023-01-13T12:57:31.161Z,7.8
2023-01-13T13:00:28.622Z,7.8
2023-01-13T13:03:28.857Z,7.8
2023-01-13T13:06:31.312Z,7.7
2023-01-13T13:09:28.566Z,7.7
2023-01-13T13:12:28.457Z,7.7
2023-01-13T13:15:30.950Z,7.6
2023-01-13T13:18:28.953Z,7.6
2023-01-13T13:21:28.173Z,7.6
2023-01-13T13:24:28.460Z,7.6
2023-01-13T13:27:30.905Z,7.5
2023-01-13T13:30:28.376Z,7.5
2023-01-13T13:33:28.230Z,7.5
2023-01-13T13:36:30.896Z,7.5
2023-01-13T13:39:29.001Z,7.5
2023-01-13T13:42:28.150Z,7.5
2023-01-13T13:45:30.707Z,7.4
2023-01-13T13:48:29.193Z,7.4
2023-01-13T13:51:28.431Z,7.4
2023-01-13T13:54:31.161Z,7.4
2023-01-13T13:57:28.492Z,7.4
2023-01-13T14:00:28.677Z,7.4
2023-01-13T14:03:28.893Z,7.4
2023-01-13T14:06:30.686Z,7.4
2023-01-13T14:09:28.823Z,7.4
2023-01-13T14:12:28.905Z,7.4
2023-01-13T14:15:30.854Z,7.4
2023-01-13T14:18:28.784Z,7.4
2023-01-13T14:21:28.981Z,7.4
2023-01-13T14:24:30.470Z,7.4
2023-01-13T14:27:28.602Z,7.4
2023-01-13T14:30:28.583Z,7.4
2023-01-13T14:33:30.806Z,7.5
2023-01-13T14:36:28.023Z,7.5
2023-01-13T14:39:28.065Z,7.5
2023-01-13T14:42:28.463Z,7.5
2023-01-13T14:45:31.153Z,7.5
2023-01-13T14:48:28.529Z,7.5
2023-01-13T14:51:28.713Z,7.5
2023-01-13T14:54:31.506Z,7.5
2023-01-13T14:57:28.758Z,7.5
2023-01-13T15:00:32.573Z,7.5
2023-01-13T15:03:30.852Z,7.5
2023-01-13T15:06:28.223Z,7.5
2023-01-13T15:09:28.405Z,7.5
2023-01-13T15:12:30.943Z,7.4
2023-01-13T15:15:28.919Z,7.4
2023-01-13T15:18:28.892Z,7.4
2023-01-13T15:21:29.031Z,7.4
2023-01-13T15:24:31.638Z,7.4
2023-01-13T15:27:28.964Z,7.4
2023-01-13T15:30:30.190Z,7.4
2023-01-13T15:33:30.683Z,7.3
2023-01-13T15:36:28.473Z,7.3
2023-01-13T15:39:28.587Z,7.3
2023-01-13T15:42:30.589Z,7.2
2023-01-13T15:45:28.764Z,7.2
2023-01-13T15:48:28.845Z,7.2
2023-01-13T15:51:31.358Z,7.1
2023-01-13T15:54:28.309Z,7.1
2023-01-13T15:57:28.484Z,7.1
2023-01-13T16:00:36.435Z,7.1
2023-01-13T16:03:31.245Z,7.1
2023-01-13T16:06:29.019Z,7.1
2023-01-13T16:09:28.385Z,7.1
2023-01-13T16:12:30.928Z,7
2023-01-13T16:15:28.283Z,7
2023-01-13T16:18:28.144Z,7
2023-01-13T16:21:30.978Z,7
2023-01-13T16:24:28.368Z,7
2023-01-13T16:27:29.044Z,7
2023-01-13T16:30:38.311Z,7.1
2023-01-13T16:33:28.638Z,7.1
2023-01-13T16:36:30.452Z,7.1
2023-01-13T16:39:28.592Z,7.1
2023-01-13T16:42:31.334Z,7.1
2023-01-13T16:45:28.899Z,7.1
2023-01-13T16:48:28.303Z,7.1
2023-01-13T16:51:31.029Z,7.1
2023-01-13T16:54:28.648Z,7.1
2023-01-13T16:57:28.527Z,7.1
2023-01-13T17:00:31.222Z,7
2023-01-13T17:03:29.273Z,7
2023-01-13T17:06:28.696Z,7
2023-01-13T17:09:31.889Z,7
2023-01-13T17:12:29.016Z,7
2023-01-13T17:15:28.844Z,7
2023-01-13T17:18:28.393Z,7
2023-01-13T17:21:30.958Z,6.9
2023-01-13T17:24:29.038Z,6.9
2023-01-13T17:27:29.028Z,6.9
2023-01-13T17:30:30.604Z,6.9
2023-01-13T17:33:28.444Z,6.9
2023-01-13T17:36:28.142Z,6.9
2023-01-13T17:39:31.378Z,6.8
2023-01-13T17:42:28.815Z,6.8
2023-01-13T17:45:28.329Z,6.8
2023-01-13T17:48:31.433Z,6.8
2023-01-13T17:51:28.611Z,6.8
2023-01-13T17:54:28.942Z,6.8
2023-01-13T17:57:29.062Z,6.8
2023-01-13T18:00:31.491Z,6.8
2023-01-13T18:03:28.235Z,6.8
2023-01-13T18:06:28.805Z,6.8
2023-01-13T18:09:30.845Z,6.8
2023-01-13T18:12:27.943Z,6.8
2023-01-13T18:15:28.967Z,6.8
2023-01-13T18:18:31.703Z,6.8
2023-01-13T18:21:29.035Z,6.8
2023-01-13T18:24:28.845Z,6.8
2023-01-13T18:27:31.110Z,6.8
2023-01-13T18:30:28.965Z,6.8
2023-01-13T18:33:28.671Z,6.8
2023-01-13T18:36:28.677Z,6.8
2023-01-13T18:39:31.010Z,6.8
2023-01-13T18:42:28.798Z,6.8
2023-01-13T18:45:28.164Z,6.8
2023-01-13T18:48:30.735Z,6.8
2023-01-13T18:51:28.475Z,6.8
2023-01-13T18:54:28.630Z,6.8
2023-01-13T18:57:31.303Z,6.8
2023-01-13T19:00:29.951Z,6.8
2023-01-13T19:03:30.853Z,6.8
2023-01-13T19:06:34.037Z,6.8
2023-01-13T19:09:28.133Z,6.8
2023-01-13T19:12:28.094Z,6.8
2023-01-13T19:15:28.411Z,6.8
2023-01-13T19:18:30.449Z,6.8
2023-01-13T19:21:28.300Z,6.8
2023-01-13T19:24:28.298Z,6.8
2023-01-13T19:27:30.709Z,6.8
2023-01-13T19:30:28.739Z,6.8
2023-01-13T19:33:28.785Z,6.8
2023-01-13T19:36:31.412Z,6.8
2023-01-13T19:39:28.135Z,6.8
2023-01-13T19:42:28.127Z,6.8
2023-01-13T19:45:31.333Z,6.8
2023-01-13T19:48:28.458Z,6.8
2023-01-13T19:51:28.452Z,6.8
2023-01-13T19:54:28.788Z,6.8
2023-01-13T19:57:30.961Z,6.8
2023-01-13T20:00:28.571Z,6.8
2023-01-13T20:03:31.075Z,6.8
2023-01-13T20:06:30.447Z,6.8
2023-01-13T20:09:28.472Z,6.8
2023-01-13T20:12:28.150Z,6.8
2023-01-13T20:15:30.534Z,6.8
2023-01-13T20:18:28.938Z,6.8
2023-01-13T20:21:27.993Z,6.8
2023-01-13T20:24:31.230Z,6.8
2023-01-13T20:27:28.771Z,6.8
2023-01-13T20:30:29.015Z,6.8
2023-01-13T20:33:28.403Z,6.8
2023-01-13T20:36:31.528Z,6.8
2023-01-13T20:39:28.011Z,6.8
2023-01-13T20:42:28.817Z,6.8
2023-01-13T20:45:31.397Z,6.9
2023-01-13T20:48:27.942Z,6.9
2023-01-13T20:51:28.653Z,6.9
2023-01-13T20:54:31.100Z,6.9
2023-01-13T20:57:28.874Z,6.9
2023-01-13T21:00:28.953Z,6.9
2023-01-13T21:03:30.567Z,6.9
2023-01-13T21:06:28.801Z,6.9
2023-01-13T21:09:28.260Z,6.9
2023-01-13T21:12:28.882Z,6.9
2023-01-13T21:15:30.506Z,6.9
2023-01-13T21:18:28.069Z,6.9
2023-01-13T21:21:28.849Z,6.9
2023-01-13T21:24:30.536Z,6.9
2023-01-13T21:27:28.351Z,6.9
2023-01-13T21:30:47.938Z,6.9
2023-01-13T21:33:30.760Z,6.9
2023-01-13T21:36:35.439Z,6.9
2023-01-13T21:39:28.548Z,6.9
2023-01-13T21:42:31.195Z,6.9
2023-01-13T21:45:29.022Z,6.9
2023-01-13T21:48:28.482Z,6.9
2023-01-13T21:51:28.551Z,6.9
2023-01-13T21:54:41.577Z,6.9
2023-01-13T21:57:28.272Z,6.9
2023-01-13T22:00:28.920Z,6.9
2023-01-13T22:03:31.109Z,6.8
2023-01-13T22:06:28.183Z,6.8
2023-01-13T22:09:28.321Z,6.8
2023-01-13T22:12:31.103Z,6.8
2023-01-13T22:15:28.264Z,6.8
2023-01-13T22:18:28.295Z,6.8
2023-01-13T22:21:30.774Z,6.8
2023-01-13T22:24:28.836Z,6.8
2023-01-13T22:27:28.710Z,6.8
2023-01-13T22:30:30.089Z,6.8
2023-01-13T22:33:31.455Z,6.8
2023-01-13T22:36:28.663Z,6.8
2023-01-13T22:39:28.719Z,6.8
2023-01-13T22:42:30.974Z,6.8
2023-01-13T22:45:28.490Z,6.8
2023-01-13T22:48:28.734Z,6.8
2023-01-13T22:51:31.319Z,6.7
2023-01-13T22:54:28.671Z,6.7
2023-01-13T22:57:47.365Z,6.7
2023-01-13T23:00:36.544Z,6.7
2023-01-13T23:03:29.151Z,6.7
2023-01-13T23:06:28.104Z,6.7
2023-01-13T23:09:28.716Z,6.7
2023-01-13T23:12:31.177Z,6.7
2023-01-13T23:15:28.067Z,6.7
2023-01-13T23:18:28.119Z,6.7
2023-01-13T23:21:31.336Z,6.7
2023-01-13T23:24:28.532Z,6.7
2023-01-13T23:27:28.459Z,6.7
2023-01-13T23:30:31.968Z,6.7
2023-01-13T23:33:28.553Z,6.7
2023-01-13T23:36:28.716Z,6.7
2023-01-13T23:39:31.231Z,6.7
2023-01-13T23:42:28.569Z,6.7
2023-01-13T23:45:28.490Z,6.7
2023-01-13T23:48:28.690Z,6.7
2023-01-13T23:51:30.418Z,6.7
2023-01-13T23:54:28.863Z,6.7
2023-01-13T23:57:29.007Z,6.7
